sensor_id;sensor_type;location;lat;lon;timestamp;temperature;humidity
34008;DHT22;41085;51.594;7.138;2023-02-28T04:25:33;16.40;87.00
34008;DHT22;41085;51.594;7.138;2023-02-28T04:30:29;16.50;87.60
34008;DHT22;41085;51.594;7.138;2023-02-28T05:29:33;16.80;87.00
34008;DHT22;41085;51.594;7.138;2023-02-28T05:33:39;16.40;73.60
34008;DHT22;41085;51.594;7.138;2023-02-28T05:37:41;16.70;86.80
34008;DHT22;41085;51.594;7.138;2023-02-28T05:41:43;18.20;88.30
34008;DHT22;41085;51.594;7.138;2023-02-28T05:45:43;16.50;87.60
34008;DHT22;41085;51.594;7.138;2023-02-28T05:49:44;16.10;87.60
34008;DHT22;41085;51.594;7.138;2023-02-28T05:53:45;16.50;88.20
34008;DHT22;41085;51.594;7.138;2023-02-28T05:57:45;19.10;89.30
34008;DHT22;41085;51.594;7.138;2023-02-28T06:01:46;16.50;87.50
34008;DHT22;41085;51.594;7.138;2023-02-28T06:05:49;17.40;87.90
34008;DHT22;41085;51.594;7.138;2023-02-28T06:09:50;16.80;88.50
34008;DHT22;41085;51.594;7.138;2023-02-28T06:13:53;17.30;88.40
34008;DHT22;41085;51.594;7.138;2023-02-28T06:17:55;16.20;87.60
34008;DHT22;41085;51.594;7.138;2023-02-28T06:21:58;18.00;88.80
34008;DHT22;41085;51.594;7.138;2023-02-28T06:26:00;16.20;88.80
34008;DHT22;41085;51.594;7.138;2023-02-28T06:30:00;16.20;88.30
34008;DHT22;41085;51.594;7.138;2023-02-28T06:34:01;16.20;88.80
34008;DHT22;41085;51.594;7.138;2023-02-28T06:38:02;15.80;90.20
34008;DHT22;41085;51.594;7.138;2023-02-28T06:42:03;16.10;88.80
34008;DHT22;41085;51.594;7.138;2023-02-28T06:46:07;16.30;90.10
34008;DHT22;41085;51.594;7.138;2023-02-28T06:50:10;16.00;88.00
34008;DHT22;41085;51.594;7.138;2023-02-28T06:54:11;16.20;88.60
34008;DHT22;41085;51.594;7.138;2023-02-28T06:58:12;16.20;88.60
34008;DHT22;41085;51.594;7.138;2023-02-28T07:02:16;16.10;88.70
34008;DHT22;41085;51.594;7.138;2023-02-28T07:06:16;16.20;89.50
34008;DHT22;41085;51.594;7.138;2023-02-28T07:10:18;19.00;90.50
34008;DHT22;41085;51.594;7.138;2023-02-28T07:14:18;16.00;89.00
34008;DHT22;41085;51.594;7.138;2023-02-28T07:18:19;18.10;90.20
34008;DHT22;41085;51.594;7.138;2023-02-28T07:22:19;17.50;90.00
34008;DHT22;41085;51.594;7.138;2023-02-28T07:26:20;15.50;89.00
34008;DHT22;41085;51.594;7.138;2023-02-28T07:30:21;16.60;89.60
34008;DHT22;41085;51.594;7.138;2023-02-28T07:34:22;15.70;89.20
34008;DHT22;41085;51.594;7.138;2023-02-28T07:38:22;15.70;88.90
34008;DHT22;41085;51.594;7.138;2023-02-28T07:42:23;18.30;90.40
34008;DHT22;41085;51.594;7.138;2023-02-28T07:46:24;17.20;90.10
34008;DHT22;41085;51.594;7.138;2023-02-28T07:50:24;16.40;90.10
34008;DHT22;41085;51.594;7.138;2023-02-28T07:54:25;18.50;90.50
34008;DHT22;41085;51.594;7.138;2023-02-28T07:58:26;15.90;90.20
34008;DHT22;41085;51.594;7.138;2023-02-28T08:02:27;16.10;89.70
34008;DHT22;41085;51.594;7.138;2023-02-28T08:06:27;17.00;85.30
34008;DHT22;41085;51.594;7.138;2023-02-28T08:10:28;16.90;83.90
34008;DHT22;41085;51.594;7.138;2023-02-28T08:14:29;16.00;84.50
34008;DHT22;41085;51.594;7.138;2023-02-28T08:18:29;15.90;86.60
34008;DHT22;41085;51.594;7.138;2023-02-28T08:22:30;17.60;87.80
34008;DHT22;41085;51.594;7.138;2023-02-28T08:26:30;18.20;89.00
34008;DHT22;41085;51.594;7.138;2023-02-28T08:30:31;18.60;91.20
34008;DHT22;41085;51.594;7.138;2023-02-28T08:34:32;16.10;90.40
34008;DHT22;41085;51.594;7.138;2023-02-28T08:38:33;16.10;90.80
34008;DHT22;41085;51.594;7.138;2023-02-28T08:42:34;16.50;90.80
34008;DHT22;41085;51.594;7.138;2023-02-28T08:46:34;16.10;91.20
34008;DHT22;41085;51.594;7.138;2023-02-28T08:50:35;17.90;92.40
34008;DHT22;41085;51.594;7.138;2023-02-28T08:54:35;17.90;91.80
34008;DHT22;41085;51.594;7.138;2023-02-28T08:58:36;15.90;91.70
34008;DHT22;41085;51.594;7.138;2023-02-28T09:02:38;15.90;91.50
34008;DHT22;41085;51.594;7.138;2023-02-28T09:06:39;17.80;92.00
34008;DHT22;41085;51.594;7.138;2023-02-28T09:10:39;18.60;93.00
34008;DHT22;41085;51.594;7.138;2023-02-28T09:14:40;17.20;92.40
34008;DHT22;41085;51.594;7.138;2023-02-28T09:18:40;15.60;91.50
34008;DHT22;41085;51.594;7.138;2023-02-28T09:22:41;18.70;92.50
34008;DHT22;41085;51.594;7.138;2023-02-28T09:26:42;16.20;92.00
34008;DHT22;41085;51.594;7.138;2023-02-28T09:30:45;17.60;92.00
34008;DHT22;41085;51.594;7.138;2023-02-28T09:34:46;16.60;91.50
34008;DHT22;41085;51.594;7.138;2023-02-28T09:38:46;17.10;91.60
34008;DHT22;41085;51.594;7.138;2023-02-28T09:42:48;17.70;91.60
34008;DHT22;41085;51.594;7.138;2023-02-28T09:46:54;16.00;91.10
34008;DHT22;41085;51.594;7.138;2023-02-28T09:51:02;16.00;91.00
34008;DHT22;41085;51.594;7.138;2023-02-28T10:08:38;16.00;90.90
34008;DHT22;41085;51.594;7.138;2023-02-28T10:12:59;16.20;90.90
34008;DHT22;41085;51.594;7.138;2023-02-28T10:17:38;17.00;91.30
34008;DHT22;41085;51.594;7.138;2023-02-28T10:22:17;16.30;90.90
34008;DHT22;41085;51.594;7.138;2023-02-28T10:31:19;18.10;92.10
34008;DHT22;41085;51.594;7.138;2023-02-28T10:35:23;15.90;90.70
34008;DHT22;41085;51.594;7.138;2023-02-28T10:39:40;18.10;91.40
34008;DHT22;41085;51.594;7.138;2023-02-28T10:43:44;15.90;90.90
34008;DHT22;41085;51.594;7.138;2023-02-28T10:48:01;18.10;91.50
34008;DHT22;41085;51.594;7.138;2023-02-28T10:52:08;15.80;90.60
34008;DHT22;41085;51.594;7.138;2023-02-28T11:00:24;18.30;92.80
34008;DHT22;41085;51.594;7.138;2023-02-28T11:08:50;16.60;90.70
34008;DHT22;41085;51.594;7.138;2023-02-28T11:12:55;17.60;92.10
34008;DHT22;41085;51.594;7.138;2023-02-28T11:17:13;17.80;91.70
34008;DHT22;41085;51.594;7.138;2023-02-28T11:21:34;17.60;92.00
34008;DHT22;41085;51.594;7.138;2023-02-28T11:25:40;19.30;92.40
34008;DHT22;41085;51.594;7.138;2023-02-28T11:29:47;18.90;91.60
34008;DHT22;41085;51.594;7.138;2023-02-28T11:33:55;16.40;81.20
34008;DHT22;41085;51.594;7.138;2023-02-28T11:37:57;17.80;74.20
34008;DHT22;41085;51.594;7.138;2023-02-28T11:48:02;13.10;78.00
34008;DHT22;41085;51.594;7.138;2023-02-28T11:52:40;16.30;83.80
34008;DHT22;41085;51.594;7.138;2023-02-28T12:02:24;17.40;84.90
34008;DHT22;41085;51.594;7.138;2023-02-28T12:06:45;17.10;88.00
34008;DHT22;41085;51.594;7.138;2023-02-28T12:30:25;15.00;85.50
34008;DHT22;41085;51.594;7.138;2023-02-28T12:41:02;15.00;86.90
34008;DHT22;41085;51.594;7.138;2023-02-28T12:44:54;17.10;90.90
34008;DHT22;41085;51.594;7.138;2023-02-28T13:09:09;17.30;88.10
34008;DHT22;41085;51.594;7.138;2023-02-28T13:13:29;18.10;91.50
34008;DHT22;41085;51.594;7.138;2023-02-28T13:17:33;17.30;90.70
34008;DHT22;41085;51.594;7.138;2023-02-28T13:21:42;16.90;93.20
34008;DHT22;41085;51.594;7.138;2023-02-28T13:34:36;17.20;87.90
34008;DHT22;41085;51.594;7.138;2023-02-28T13:43:00;16.20;93.30
34008;DHT22;41085;51.594;7.138;2023-02-28T13:56:15;15.70;87.30
34008;DHT22;41085;51.594;7.138;2023-02-28T14:00:44;14.00;86.30
34008;DHT22;41085;51.594;7.138;2023-02-28T14:14:04;15.20;87.30
34008;DHT22;41085;51.594;7.138;2023-02-28T14:18:34;17.50;89.70
34008;DHT22;41085;51.594;7.138;2023-02-28T14:31:43;15.40;87.70
34008;DHT22;41085;51.594;7.138;2023-02-28T14:50:47;15.50;86.80
34008;DHT22;41085;51.594;7.138;2023-02-28T15:00:36;15.80;87.40
34008;DHT22;41085;51.594;7.138;2023-02-28T15:20:41;15.80;87.10
34008;DHT22;41085;51.594;7.138;2023-02-28T15:40:49;15.80;87.20
34008;DHT22;41085;51.594;7.138;2023-02-28T15:45:33;16.10;87.30
34008;DHT22;41085;51.594;7.138;2023-02-28T15:55:29;14.30;86.50
34008;DHT22;41085;51.594;7.138;2023-02-28T16:00:15;14.70;87.10
34008;DHT22;41085;51.594;7.138;2023-02-28T16:04:18;15.60;88.00
34008;DHT22;41085;51.594;7.138;2023-02-28T16:08:19;16.30;88.60
34008;DHT22;41085;51.594;7.138;2023-02-28T16:12:21;15.70;89.30
34008;DHT22;41085;51.594;7.138;2023-02-28T16:16:24;15.80;88.10
34008;DHT22;41085;51.594;7.138;2023-02-28T16:20:30;15.70;88.40
34008;DHT22;41085;51.594;7.138;2023-02-28T16:24:31;15.40;88.80
34008;DHT22;41085;51.594;7.138;2023-02-28T16:28:34;15.60;88.70
34008;DHT22;41085;51.594;7.138;2023-02-28T16:32:35;15.90;88.50
34008;DHT22;41085;51.594;7.138;2023-02-28T16:36:36;15.60;88.60
34008;DHT22;41085;51.594;7.138;2023-02-28T16:40:37;15.50;88.70
34008;DHT22;41085;51.594;7.138;2023-02-28T16:44:38;15.70;88.80
34008;DHT22;41085;51.594;7.138;2023-02-28T16:48:40;15.60;90.30
34008;DHT22;41085;51.594;7.138;2023-02-28T16:52:44;15.40;89.10
34008;DHT22;41085;51.594;7.138;2023-02-28T16:56:46;15.70;89.30
34008;DHT22;41085;51.594;7.138;2023-02-28T17:00:49;15.70;89.00
34008;DHT22;41085;51.594;7.138;2023-02-28T17:04:49;16.90;90.00
34008;DHT22;41085;51.594;7.138;2023-02-28T17:13:25;15.80;88.00
34008;DHT22;41085;51.594;7.138;2023-02-28T17:17:53;15.90;88.30
34008;DHT22;41085;51.594;7.138;2023-02-28T17:21:54;15.80;89.10
34008;DHT22;41085;51.594;7.138;2023-02-28T17:25:54;15.80;89.70
34008;DHT22;41085;51.594;7.138;2023-02-28T17:29:55;16.00;89.80
34008;DHT22;41085;51.594;7.138;2023-02-28T17:33:55;16.40;89.90
34008;DHT22;41085;51.594;7.138;2023-02-28T17:37:56;16.20;89.90
34008;DHT22;41085;51.594;7.138;2023-02-28T17:41:56;15.90;89.80
34008;DHT22;41085;51.594;7.138;2023-02-28T17:45:57;15.60;89.70
34008;DHT22;41085;51.594;7.138;2023-02-28T17:49:58;16.30;90.10
34008;DHT22;41085;51.594;7.138;2023-02-28T17:53:59;16.50;90.10
34008;DHT22;41085;51.594;7.138;2023-02-28T17:58:00;15.40;90.00
34008;DHT22;41085;51.594;7.138;2023-02-28T18:02:02;15.10;89.50
34008;DHT22;41085;51.594;7.138;2023-02-28T18:06:03;16.10;89.80
34008;DHT22;41085;51.594;7.138;2023-02-28T18:10:11;15.20;89.60
34008;DHT22;41085;51.594;7.138;2023-02-28T18:14:14;15.20;89.50
34008;DHT22;41085;51.594;7.138;2023-02-28T18:18:15;17.70;90.70
34008;DHT22;41085;51.594;7.138;2023-02-28T18:22:16;15.70;90.50
34008;DHT22;41085;51.594;7.138;2023-02-28T18:26:18;17.50;90.40
34008;DHT22;41085;51.594;7.138;2023-02-28T18:30:20;16.90;90.20
34008;DHT22;41085;51.594;7.138;2023-02-28T18:34:22;15.50;90.20
34008;DHT22;41085;51.594;7.138;2023-02-28T18:38:23;15.40;89.90
34008;DHT22;41085;51.594;7.138;2023-02-28T18:42:23;17.00;90.40
34008;DHT22;41085;51.594;7.138;2023-02-28T18:46:24;15.80;90.10
34008;DHT22;41085;51.594;7.138;2023-02-28T18:50:24;15.80;89.90
34008;DHT22;41085;51.594;7.138;2023-02-28T18:54:25;15.40;89.50
34008;DHT22;41085;51.594;7.138;2023-02-28T18:58:25;15.30;89.60
34008;DHT22;41085;51.594;7.138;2023-02-28T19:02:26;15.10;89.50
34008;DHT22;41085;51.594;7.138;2023-02-28T19:06:27;16.00;90.00
34008;DHT22;41085;51.594;7.138;2023-02-28T19:10:29;17.40;90.30
34008;DHT22;41085;51.594;7.138;2023-02-28T19:14:30;15.00;90.50
34008;DHT22;41085;51.594;7.138;2023-02-28T19:18:31;15.50;89.80
34008;DHT22;41085;51.594;7.138;2023-02-28T19:22:32;16.80;90.90
34008;DHT22;41085;51.594;7.138;2023-02-28T19:26:32;16.40;90.10
34008;DHT22;41085;51.594;7.138;2023-02-28T19:30:33;15.30;89.80
34008;DHT22;41085;51.594;7.138;2023-02-28T19:34:33;14.90;89.40
34008;DHT22;41085;51.594;7.138;2023-02-28T19:38:34;15.30;89.70
34008;DHT22;41085;51.594;7.138;2023-02-28T19:42:35;16.00;90.00
34008;DHT22;41085;51.594;7.138;2023-02-28T19:46:35;15.60;89.90
34008;DHT22;41085;51.594;7.138;2023-02-28T19:50:36;15.00;89.50
34008;DHT22;41085;51.594;7.138;2023-02-28T19:54:37;17.00;90.30
34008;DHT22;41085;51.594;7.138;2023-02-28T19:58:38;15.20;89.60
34008;DHT22;41085;51.594;7.138;2023-02-28T20:02:39;15.20;89.50
34008;DHT22;41085;51.594;7.138;2023-02-28T20:06:40;15.80;89.90
34008;DHT22;41085;51.594;7.138;2023-02-28T20:10:41;15.20;89.60
34008;DHT22;41085;51.594;7.138;2023-02-28T20:14:42;16.00;90.00
34008;DHT22;41085;51.594;7.138;2023-02-28T20:18:43;15.80;89.70
34008;DHT22;41085;51.594;7.138;2023-02-28T20:22:45;15.00;90.70
34008;DHT22;41085;51.594;7.138;2023-02-28T20:26:46;15.30;89.70
34008;DHT22;41085;51.594;7.138;2023-02-28T20:30:46;15.10;90.70
34008;DHT22;41085;51.594;7.138;2023-02-28T20:34:50;15.60;89.60
34008;DHT22;41085;51.594;7.138;2023-02-28T20:38:51;16.60;90.20
34008;DHT22;41085;51.594;7.138;2023-02-28T20:42:53;15.40;90.60
34008;DHT22;41085;51.594;7.138;2023-02-28T20:46:54;15.20;89.90
34008;DHT22;41085;51.594;7.138;2023-02-28T20:50:56;18.10;90.70
34008;DHT22;41085;51.594;7.138;2023-02-28T20:54:56;16.40;90.10
34008;DHT22;41085;51.594;7.138;2023-02-28T20:58:57;16.60;90.10
34008;DHT22;41085;51.594;7.138;2023-02-28T21:02:58;15.30;89.50
34008;DHT22;41085;51.594;7.138;2023-02-28T21:06:59;15.00;90.70
34008;DHT22;41085;51.594;7.138;2023-02-28T21:10:59;16.50;90.20
34008;DHT22;41085;51.594;7.138;2023-02-28T21:15:00;15.60;90.10
34008;DHT22;41085;51.594;7.138;2023-02-28T21:19:00;15.00;89.90
34008;DHT22;41085;51.594;7.138;2023-02-28T21:23:04;15.60;89.60
34008;DHT22;41085;51.594;7.138;2023-02-28T21:27:05;14.90;89.60
34008;DHT22;41085;51.594;7.138;2023-02-28T21:31:07;15.00;89.60
34008;DHT22;41085;51.594;7.138;2023-02-28T21:35:09;17.10;90.30
34008;DHT22;41085;51.594;7.138;2023-02-28T21:39:19;17.20;90.50
34008;DHT22;41085;51.594;7.138;2023-02-28T21:43:21;15.60;89.70
34008;DHT22;41085;51.594;7.138;2023-02-28T21:47:22;15.30;89.70
34008;DHT22;41085;51.594;7.138;2023-02-28T21:51:28;15.00;89.30
34008;DHT22;41085;51.594;7.138;2023-02-28T21:55:33;15.90;90.00
34008;DHT22;41085;51.594;7.138;2023-02-28T23:24:49;14.50;89.10
34008;DHT22;41085;51.594;7.138;2023-02-28T23:53:51;14.60;89.50
34008;DHT22;41085;51.594;7.138;2023-02-28T23:57:52;14.50;90.40
